createdAt,value
2023-03-19T00:00:19.747Z,8.40
2023-03-19T00:01:22.749Z,8.30
2023-03-19T00:02:24.813Z,8.30
2023-03-19T00:03:27.805Z,8.30
2023-03-19T00:04:29.776Z,8.40
2023-03-19T00:05:34.626Z,8.40
2023-03-19T00:06:36.833Z,8.40
2023-03-19T00:07:39.733Z,8.50
2023-03-19T00:08:42.053Z,8.50
2023-03-19T00:09:48.235Z,8.50
2023-03-19T00:10:50.900Z,8.50
2023-03-19T00:11:53.997Z,8.50
2023-03-19T00:12:56.588Z,8.50
2023-03-19T00:13:59.554Z,8.50
2023-03-19T00:15:01.729Z,8.40
2023-03-19T00:16:05.165Z,8.40
2023-03-19T00:17:07.266Z,8.50
2023-03-19T00:18:10.323Z,8.50
2023-03-19T00:19:12.281Z,8.50
2023-03-19T00:20:16.133Z,8.50
2023-03-19T00:21:19.464Z,8.50
2023-03-19T00:22:22.432Z,8.50
2023-03-19T00:23:24.566Z,8.50
2023-03-19T00:24:27.599Z,8.50
2023-03-19T00:25:29.700Z,8.50
2023-03-19T00:26:33.560Z,8.50
2023-03-19T00:27:36.470Z,8.50
2023-03-19T00:28:39.567Z,8.40
2023-03-19T00:29:41.487Z,8.40
2023-03-19T00:30:45.570Z,8.40
2023-03-19T00:31:47.611Z,8.40
2023-03-19T00:32:50.582Z,8.40
2023-03-19T00:33:53.118Z,8.40
2023-03-19T00:34:56.369Z,8.30
2023-03-19T00:35:58.733Z,8.40
2023-03-19T00:37:03.076Z,8.40
2023-03-19T00:38:05.013Z,8.40
2023-03-19T00:39:08.864Z,8.40
2023-03-19T00:40:12.040Z,8.40
2023-03-19T00:41:17.239Z,8.40
2023-03-19T00:42:19.223Z,8.40
2023-03-19T00:43:22.143Z,8.50
2023-03-19T00:44:24.421Z,8.40
2023-03-19T00:45:28.027Z,8.40
2023-03-19T00:46:30.054Z,8.30
2023-03-19T00:47:32.968Z,8.30
2023-03-19T00:48:35.954Z,8.30
2023-03-19T00:49:38.875Z,8.30
2023-03-19T00:50:41.144Z,8.30
2023-03-19T00:51:44.124Z,8.40
2023-03-19T00:52:47.388Z,8.40
2023-03-19T00:53:50.950Z,8.40
2023-03-19T00:54:52.879Z,8.40
2023-03-19T00:55:56.126Z,8.40
2023-03-19T00:56:58.162Z,8.40
2023-03-19T00:58:01.801Z,8.40
2023-03-19T00:59:03.758Z,8.40
2023-03-19T01:00:08.604Z,8.50
2023-03-19T01:01:12.821Z,8.40
2023-03-19T01:02:15.983Z,8.40
2023-03-19T01:03:17.950Z,8.40
2023-03-19T01:04:21.713Z,8.30
2023-03-19T01:05:41.826Z,8.30
2023-03-19T01:06:44.720Z,8.30
2023-03-19T01:07:48.040Z,8.40
2023-03-19T01:08:50.931Z,8.30
2023-03-19T01:09:52.922Z,8.30
2023-03-19T01:10:55.835Z,8.30
2023-03-19T01:11:57.797Z,8.30
2023-03-19T01:13:00.684Z,8.30
2023-03-19T01:14:02.719Z,8.30
2023-03-19T01:15:08.786Z,8.30
2023-03-19T01:16:11.505Z,8.20
2023-03-19T01:17:14.419Z,8.20
2023-03-19T01:18:16.322Z,8.20
2023-03-19T01:19:20.079Z,8.20
2023-03-19T01:20:24.093Z,8.20
2023-03-19T01:21:27.338Z,8.20
2023-03-19T01:22:29.264Z,8.20
2023-03-19T01:23:33.552Z,8.10
2023-03-19T01:24:35.585Z,8.10
2023-03-19T01:25:40.614Z,8.20
2023-03-19T01:26:42.886Z,8.20
2023-03-19T01:28:49.098Z,8.20
2023-03-19T01:29:51.480Z,8.30
2023-03-19T01:30:54.491Z,7.70
2023-03-19T01:31:57.293Z,7.50
2023-03-19T01:33:00.553Z,7.80
2023-03-19T01:34:02.972Z,7.90
2023-03-19T01:35:06.808Z,7.90
2023-03-19T01:36:14.411Z,8.00
2023-03-19T01:37:17.457Z,8.00
2023-03-19T01:38:19.683Z,8.10
2023-03-19T01:39:23.988Z,8.10
2023-03-19T01:40:25.930Z,8.10
2023-03-19T01:41:28.826Z,8.10
2023-03-19T01:42:30.828Z,8.10
2023-03-19T01:43:34.312Z,8.20
2023-03-19T01:44:38.040Z,8.20
2023-03-19T01:45:42.348Z,8.30
2023-03-19T01:46:45.382Z,8.30
2023-03-19T01:47:47.345Z,8.20
2023-03-19T01:48:52.700Z,8.20
2023-03-19T01:49:56.906Z,8.10
2023-03-19T01:51:02.129Z,8.10
2023-03-19T01:52:06.060Z,8.20
2023-03-19T01:53:12.531Z,8.10
2023-03-19T01:54:20.445Z,8.10
2023-03-19T01:55:24.927Z,8.10
2023-03-19T01:56:30.618Z,8.20
2023-03-19T01:57:33.833Z,8.10
2023-03-19T01:58:35.896Z,8.10
2023-03-19T01:59:42.465Z,8.00
2023-03-19T02:00:45.785Z,8.00
2023-03-19T02:01:56.084Z,8.00
2023-03-19T02:03:01.572Z,8.00
2023-03-19T02:04:06.059Z,8.00
2023-03-19T02:05:11.364Z,8.00
2023-03-19T02:06:15.151Z,7.90
2023-03-19T02:07:17.395Z,8.00
2023-03-19T02:08:23.028Z,8.00
2023-03-19T02:09:27.717Z,8.00
2023-03-19T02:10:33.047Z,8.10
2023-03-19T02:11:36.211Z,8.10
2023-03-19T02:12:39.694Z,8.10
2023-03-19T02:13:41.734Z,8.10
2023-03-19T02:14:44.743Z,8.20
2023-03-19T02:15:47.536Z,8.10
2023-03-19T02:16:51.265Z,8.10
2023-03-19T02:17:53.222Z,8.00
2023-03-19T02:18:57.406Z,8.00
2023-03-19T02:20:05.195Z,8.00
2023-03-19T02:21:09.987Z,8.00
2023-03-19T02:22:13.915Z,7.90
2023-03-19T02:23:26.121Z,7.90
2023-03-19T02:24:33.821Z,7.90
2023-03-19T02:25:44.663Z,7.90
2023-03-19T02:26:48.436Z,7.90
2023-03-19T02:27:52.114Z,8.00
2023-03-19T02:28:54.105Z,8.00
2023-03-19T02:29:57.089Z,8.10
2023-03-19T02:30:59.400Z,8.00
2023-03-19T02:32:03.650Z,8.10
2023-03-19T02:33:06.194Z,8.10
2023-03-19T02:34:34.364Z,8.00
2023-03-19T02:35:38.502Z,8.10
2023-03-19T02:36:45.740Z,8.10
2023-03-19T02:37:47.772Z,8.10
2023-03-19T02:38:52.091Z,8.10
2023-03-19T02:39:58.321Z,8.10
2023-03-19T02:41:04.449Z,8.00
2023-03-19T02:42:08.356Z,7.90
2023-03-19T02:43:11.242Z,8.00
2023-03-19T02:44:14.246Z,8.00
2023-03-19T02:45:17.031Z,8.00
2023-03-19T02:46:19.941Z,8.10
2023-03-19T02:47:22.181Z,8.00
2023-03-19T02:48:26.562Z,8.00
2023-03-19T02:49:28.574Z,8.00
2023-03-19T02:51:37.461Z,8.00
2023-03-19T02:52:40.581Z,8.00
2023-03-19T02:53:42.756Z,8.00
2023-03-19T02:54:46.652Z,7.90
2023-03-19T02:55:48.654Z,7.90
2023-03-19T02:58:58.549Z,7.70
2023-03-19T03:00:00.651Z,7.70
2023-03-19T03:01:03.661Z,7.70
2023-03-19T03:02:17.948Z,7.70
2023-03-19T03:03:20.959Z,7.80
2023-03-19T03:04:23.006Z,7.80
2023-03-19T03:05:26.328Z,7.80
2023-03-19T03:06:28.294Z,7.80
2023-03-19T03:07:32.658Z,7.80
2023-03-19T03:08:34.915Z,7.80
2023-03-19T03:09:37.867Z,7.80
2023-03-19T03:10:40.172Z,7.90
2023-03-19T03:11:43.157Z,7.90
2023-03-19T03:12:46.304Z,8.00
2023-03-19T03:13:49.253Z,8.00
2023-03-19T03:14:51.302Z,8.00
2023-03-19T03:15:54.552Z,7.90
2023-03-19T03:16:57.406Z,8.00
2023-03-19T03:18:00.859Z,7.90
2023-03-19T03:19:03.012Z,7.90
2023-03-19T03:20:07.564Z,7.90
2023-03-19T03:21:10.152Z,7.90
2023-03-19T03:22:23.822Z,7.70
2023-03-19T03:23:27.696Z,7.80
2023-03-19T03:25:33.045Z,7.80
2023-03-19T03:26:38.735Z,7.70
2023-03-19T03:27:41.309Z,7.80
2023-03-19T03:28:44.376Z,7.90
2023-03-19T03:30:50.117Z,7.90
2023-03-19T03:31:52.384Z,7.90
2023-03-19T03:32:55.520Z,7.90
2023-03-19T03:33:57.548Z,7.90
2023-03-19T03:35:00.898Z,8.00
2023-03-19T03:36:02.910Z,8.00
2023-03-19T03:37:06.084Z,8.00
2023-03-19T03:38:08.110Z,8.00
2023-03-19T03:39:12.417Z,8.00
2023-03-19T03:40:16.038Z,8.00
2023-03-19T03:41:18.937Z,7.90
2023-03-19T03:42:22.437Z,7.30
2023-03-19T03:43:25.884Z,7.80
2023-03-19T03:44:27.798Z,7.80
2023-03-19T03:45:30.855Z,7.80
2023-03-19T03:46:32.831Z,7.80
2023-03-19T03:47:35.868Z,7.90
2023-03-19T03:48:37.802Z,8.00
2023-03-19T03:49:40.743Z,8.00
2023-03-19T03:50:43.218Z,7.90
2023-03-19T03:51:46.137Z,8.00
2023-03-19T03:52:48.124Z,8.00
2023-03-19T03:53:51.115Z,8.00
2023-03-19T03:54:54.447Z,8.00
2023-03-19T03:55:57.348Z,8.10
2023-03-19T03:57:00.766Z,8.10
2023-03-19T03:58:05.818Z,8.10
2023-03-19T03:59:08.071Z,8.20
2023-03-19T04:00:12.575Z,8.10
2023-03-19T04:01:16.124Z,8.00
2023-03-19T04:02:19.079Z,8.00
2023-03-19T04:03:21.156Z,8.00
2023-03-19T04:04:24.167Z,8.00
2023-03-19T04:05:26.383Z,8.10
2023-03-19T04:06:29.925Z,8.10
2023-03-19T04:07:32.104Z,8.00
2023-03-19T04:08:35.078Z,8.00
2023-03-19T04:09:37.113Z,8.10
2023-03-19T04:10:43.704Z,7.90
2023-03-19T04:11:45.914Z,8.00
2023-03-19T04:12:49.721Z,8.10
2023-03-19T04:13:52.160Z,8.00
2023-03-19T04:14:55.065Z,8.00
2023-03-19T04:15:57.323Z,8.00
2023-03-19T04:17:00.441Z,8.00
2023-03-19T04:18:02.417Z,8.00
2023-03-19T04:19:05.370Z,8.10
2023-03-19T04:20:09.120Z,8.10
2023-03-19T04:21:12.085Z,8.10
2023-03-19T04:22:14.140Z,8.10
2023-03-19T04:23:17.130Z,8.10
2023-03-19T04:24:19.214Z,8.00
2023-03-19T04:25:22.124Z,8.00
2023-03-19T04:26:25.825Z,8.10
2023-03-19T04:27:28.845Z,8.20
2023-03-19T04:28:31.222Z,8.20
2023-03-19T04:29:34.253Z,8.20
2023-03-19T04:30:36.436Z,8.20
2023-03-19T04:31:39.777Z,8.20
2023-03-19T04:32:41.715Z,8.20
2023-03-19T04:33:44.666Z,8.20
2023-03-19T04:34:46.662Z,8.20
2023-03-19T04:35:49.789Z,8.20
2023-03-19T04:36:53.007Z,8.20
2023-03-19T04:37:54.977Z,8.00
2023-03-19T04:38:57.930Z,8.00
2023-03-19T04:40:00.155Z,8.00
2023-03-19T04:41:04.149Z,8.10
2023-03-19T04:42:07.677Z,8.10
2023-03-19T04:43:10.665Z,8.10
2023-03-19T04:44:13.524Z,8.20
2023-03-19T04:45:16.596Z,8.20
2023-03-19T04:46:18.640Z,8.20
2023-03-19T04:47:21.934Z,8.20
2023-03-19T04:48:23.942Z,8.20
2023-03-19T04:49:28.233Z,8.20
2023-03-19T04:50:30.636Z,8.20
2023-03-19T04:51:33.670Z,8.20
2023-03-19T04:52:37.223Z,8.10
2023-03-19T04:53:40.217Z,8.20
2023-03-19T04:54:42.256Z,8.10
2023-03-19T04:55:45.472Z,8.10
2023-03-19T04:56:47.506Z,8.10
2023-03-19T04:57:51.989Z,8.10
2023-03-19T04:58:54.282Z,8.20
2023-03-19T04:59:57.357Z,8.20
2023-03-19T05:00:59.278Z,8.10
2023-03-19T05:02:02.200Z,8.20
2023-03-19T05:03:04.297Z,8.20
2023-03-19T05:04:07.341Z,8.20
2023-03-19T05:05:09.816Z,8.20
2023-03-19T05:06:12.760Z,8.10
2023-03-19T05:07:14.751Z,8.10
2023-03-19T05:08:18.051Z,8.10
2023-03-19T05:09:20.025Z,8.10
2023-03-19T05:10:23.163Z,8.10
2023-03-19T05:11:25.201Z,8.10
2023-03-19T05:12:28.098Z,8.00
2023-03-19T05:13:32.497Z,8.00
2023-03-19T05:14:34.458Z,8.00
2023-03-19T05:15:37.483Z,8.00
2023-03-19T05:16:39.724Z,8.00
2023-03-19T05:17:42.801Z,8.10
2023-03-19T05:18:44.813Z,8.10
2023-03-19T05:19:48.491Z,8.10
2023-03-19T05:20:50.440Z,8.20
2023-03-19T05:21:53.436Z,8.20
2023-03-19T05:22:55.449Z,8.20
2023-03-19T05:23:58.358Z,8.10
2023-03-19T05:25:00.328Z,8.10
2023-03-19T05:26:03.301Z,8.10
2023-03-19T05:27:05.381Z,8.10
2023-03-19T05:28:08.743Z,8.10
2023-03-19T05:29:12.172Z,8.10
2023-03-19T05:30:15.964Z,8.20
2023-03-19T05:31:19.084Z,8.20
2023-03-19T05:32:21.247Z,8.20
2023-03-19T05:33:24.461Z,8.10
2023-03-19T05:34:27.119Z,8.20
2023-03-19T05:35:31.111Z,8.20
2023-03-19T05:36:35.039Z,8.10
2023-03-19T05:37:38.265Z,8.10
2023-03-19T05:38:40.642Z,8.00
2023-03-19T05:39:43.634Z,8.00
2023-03-19T05:40:45.767Z,7.90
2023-03-19T05:41:48.808Z,8.00
2023-03-19T05:42:51.363Z,8.00
2023-03-19T05:43:54.345Z,8.00
2023-03-19T05:44:58.016Z,8.00
2023-03-19T05:46:00.956Z,8.00
2023-03-19T05:47:02.888Z,8.10
2023-03-19T05:48:06.409Z,8.10
2023-03-19T05:49:08.422Z,8.10
2023-03-19T05:50:12.699Z,8.10
2023-03-19T05:51:14.708Z,8.20
2023-03-19T05:52:17.734Z,8.20
2023-03-19T05:53:20.829Z,8.20
2023-03-19T05:54:22.825Z,8.20
2023-03-19T05:55:27.098Z,8.20
2023-03-19T05:56:29.551Z,8.00
2023-03-19T05:57:32.553Z,8.00
2023-03-19T05:58:34.540Z,8.00
2023-03-19T05:59:37.567Z,8.00
2023-03-19T06:00:41.567Z,8.00
2023-03-19T06:01:44.527Z,8.00
2023-03-19T06:02:46.988Z,8.10
2023-03-19T06:03:50.078Z,8.20
2023-03-19T06:04:52.150Z,8.20
2023-03-19T06:05:55.149Z,8.20
2023-03-19T06:06:57.120Z,8.20
2023-03-19T06:08:00.125Z,8.20
2023-03-19T06:09:02.091Z,8.20
2023-03-19T06:10:06.514Z,8.20
2023-03-19T06:11:08.815Z,8.20
2023-03-19T06:12:12.160Z,8.20
2023-03-19T06:13:14.183Z,8.20
2023-03-19T06:14:17.191Z,8.30
2023-03-19T06:15:19.146Z,8.30
2023-03-19T06:16:23.689Z,8.30
2023-03-19T06:17:25.779Z,8.30
2023-03-19T06:18:29.136Z,8.20
2023-03-19T06:19:31.043Z,8.20
2023-03-19T06:20:34.183Z,8.20
2023-03-19T06:21:37.312Z,8.20
2023-03-19T06:22:39.301Z,8.20
2023-03-19T06:23:42.229Z,8.30
2023-03-19T06:24:44.180Z,8.20
2023-03-19T06:25:47.219Z,8.20
2023-03-19T06:26:49.158Z,8.20
2023-03-19T06:27:52.103Z,8.20
2023-03-19T06:28:54.764Z,8.20
2023-03-19T06:29:57.716Z,8.30
2023-03-19T06:30:59.669Z,8.20
2023-03-19T06:32:04.605Z,8.20
2023-03-19T06:33:06.624Z,8.10
2023-03-19T06:34:10.184Z,8.20
2023-03-19T06:35:12.775Z,8.20
2023-03-19T06:36:15.674Z,8.20
2023-03-19T06:37:18.950Z,8.20
2023-03-19T06:38:22.466Z,8.20
2023-03-19T06:39:25.928Z,8.20
2023-03-19T06:40:28.164Z,8.20
2023-03-19T06:41:31.252Z,8.20
2023-03-19T06:42:33.339Z,8.20
2023-03-19T06:43:37.269Z,8.20
2023-03-19T06:44:39.312Z,8.30
2023-03-19T06:45:42.314Z,8.30
2023-03-19T06:46:44.314Z,8.30
2023-03-19T06:47:48.666Z,8.40
2023-03-19T06:48:50.623Z,8.40
2023-03-19T06:49:53.523Z,8.40
2023-03-19T06:50:55.504Z,8.40
2023-03-19T06:51:58.394Z,8.40
2023-03-19T06:53:00.541Z,8.40
2023-03-19T06:54:03.487Z,8.40
2023-03-19T06:55:06.962Z,8.40
2023-03-19T06:56:10.264Z,8.50
2023-03-19T06:57:12.277Z,8.50
2023-03-19T06:58:15.198Z,8.50
2023-03-19T06:59:17.504Z,8.50
2023-03-19T07:00:21.325Z,8.40
2023-03-19T07:01:24.033Z,8.40
2023-03-19T07:02:27.743Z,8.40
2023-03-19T07:03:31.441Z,8.50
2023-03-19T07:04:34.375Z,8.50
2023-03-19T07:05:36.371Z,8.50
2023-03-19T07:06:39.315Z,8.50
2023-03-19T07:07:41.393Z,8.50
2023-03-19T07:08:46.300Z,8.50
2023-03-19T07:09:48.225Z,8.50
2023-03-19T07:10:51.184Z,8.50
2023-03-19T07:11:53.157Z,8.50
2023-03-19T07:12:56.212Z,8.50
2023-03-19T07:13:58.200Z,8.50
2023-03-19T07:15:01.608Z,8.60
2023-03-19T07:16:05.251Z,8.60
2023-03-19T07:17:09.842Z,7.90
2023-03-19T07:18:13.324Z,7.20
2023-03-19T07:19:16.632Z,6.90
2023-03-19T07:20:19.794Z,6.70
2023-03-19T07:22:25.149Z,6.70
2023-03-19T07:23:27.161Z,6.70
2023-03-19T07:24:30.082Z,6.70
2023-03-19T07:25:33.019Z,6.60
2023-03-19T07:26:35.114Z,6.60
2023-03-19T07:27:38.097Z,6.60
2023-03-19T07:29:43.374Z,7.30
2023-03-19T07:30:45.375Z,7.40
2023-03-19T07:31:48.303Z,7.60
2023-03-19T07:32:50.556Z,7.70
2023-03-19T07:33:53.599Z,7.80
2023-03-19T07:34:56.996Z,7.90
2023-03-19T07:35:59.913Z,7.90
2023-03-19T07:37:02.899Z,8.00
2023-03-19T07:38:04.922Z,8.00
2023-03-19T07:39:07.863Z,8.10
2023-03-19T07:40:10.984Z,8.10
2023-03-19T07:41:13.931Z,8.20
2023-03-19T07:42:16.189Z,8.20
2023-03-19T07:43:19.456Z,8.30
2023-03-19T07:44:22.401Z,8.20
2023-03-19T07:45:24.315Z,8.30
2023-03-19T07:46:28.349Z,8.40
2023-03-19T07:47:30.799Z,8.40
2023-03-19T07:48:35.110Z,8.40
2023-03-19T07:49:37.182Z,8.40
2023-03-19T07:50:41.552Z,8.50
2023-03-19T07:51:43.487Z,8.50
2023-03-19T07:52:47.062Z,8.50
2023-03-19T07:53:50.429Z,8.50
2023-03-19T07:54:53.483Z,8.50
2023-03-19T07:55:56.511Z,8.50
2023-03-19T07:56:58.482Z,8.50
2023-03-19T07:58:01.384Z,8.60
2023-03-19T07:59:04.433Z,8.70
2023-03-19T08:00:09.004Z,8.70
2023-03-19T08:01:11.158Z,8.70
2023-03-19T08:02:14.654Z,8.80
2023-03-19T08:03:16.816Z,8.70
2023-03-19T08:04:20.060Z,8.80
2023-03-19T08:05:22.340Z,8.70
2023-03-19T08:06:26.733Z,8.70
2023-03-19T08:07:28.749Z,8.70
2023-03-19T08:08:31.737Z,8.80
2023-03-19T08:09:34.128Z,8.80
2023-03-19T08:11:41.072Z,8.90
2023-03-19T08:12:44.036Z,9.00
2023-03-19T08:13:47.164Z,9.00
2023-03-19T08:14:49.090Z,9.00
2023-03-19T08:15:53.370Z,9.00
2023-03-19T08:16:55.604Z,9.10
2023-03-19T08:17:59.683Z,9.20
2023-03-19T08:19:02.671Z,9.20
2023-03-19T08:20:08.267Z,9.30
2023-03-19T08:21:12.452Z,9.30
2023-03-19T08:22:16.041Z,9.30
2023-03-19T08:23:19.336Z,9.30
2023-03-19T08:24:22.546Z,9.30
2023-03-19T08:25:27.358Z,9.30
2023-03-19T08:26:30.459Z,9.40
2023-03-19T08:27:34.405Z,9.40
2023-03-19T08:28:38.108Z,9.40
2023-03-19T08:29:40.635Z,9.50
2023-03-19T08:30:43.617Z,9.50
2023-03-19T08:31:46.231Z,9.60
2023-03-19T08:32:49.480Z,9.60
2023-03-19T08:33:51.562Z,9.80
2023-03-19T08:34:54.472Z,9.80
2023-03-19T08:36:05.312Z,9.80
2023-03-19T08:37:08.351Z,9.90
2023-03-19T08:38:12.024Z,10.00
2023-03-19T08:39:15.260Z,10.10
2023-03-19T08:40:18.611Z,10.20
2023-03-19T08:41:20.838Z,10.20
2023-03-19T08:42:23.943Z,10.30
2023-03-19T08:43:26.959Z,10.30
2023-03-19T08:44:29.464Z,10.30
2023-03-19T08:45:32.583Z,10.30
2023-03-19T08:46:34.763Z,10.40
2023-03-19T08:47:37.987Z,10.30
2023-03-19T08:48:41.567Z,10.30
2023-03-19T08:49:43.670Z,10.30
2023-03-19T08:50:46.622Z,10.40
2023-03-19T08:51:51.951Z,10.40
2023-03-19T08:52:55.922Z,10.40
2023-03-19T08:54:00.399Z,10.50
2023-03-19T08:55:03.517Z,10.50
2023-03-19T08:56:07.769Z,10.50
2023-03-19T08:57:11.200Z,10.40
2023-03-19T08:58:13.154Z,10.50
2023-03-19T08:59:16.051Z,10.40
2023-03-19T09:00:19.710Z,10.40
2023-03-19T09:01:21.674Z,10.50
2023-03-19T09:02:24.699Z,10.50
2023-03-19T09:03:27.326Z,10.50
2023-03-19T09:04:30.554Z,10.60
2023-03-19T09:05:32.830Z,10.60
2023-03-19T09:06:36.209Z,10.70
2023-03-19T09:07:39.134Z,10.70
2023-03-19T09:08:42.958Z,10.70
2023-03-19T09:09:47.318Z,10.70
2023-03-19T09:10:51.379Z,10.70
2023-03-19T09:11:54.613Z,10.70
2023-03-19T09:12:57.567Z,10.60
2023-03-19T09:13:59.495Z,10.70
2023-03-19T09:15:03.458Z,10.70
2023-03-19T09:16:06.914Z,10.70
2023-03-19T09:17:12.877Z,10.70
2023-03-19T09:18:14.873Z,10.70
2023-03-19T09:19:17.895Z,10.70
2023-03-19T09:20:21.038Z,10.70
2023-03-19T09:21:22.935Z,10.70
2023-03-19T09:22:26.077Z,10.80
2023-03-19T09:23:28.335Z,10.80
2023-03-19T09:24:31.259Z,10.80
2023-03-19T09:25:34.851Z,10.80
2023-03-19T09:26:37.981Z,10.80
2023-03-19T09:27:41.152Z,10.80
2023-03-19T09:28:43.084Z,10.80
2023-03-19T09:29:46.063Z,10.80
2023-03-19T09:30:48.942Z,10.90
2023-03-19T09:31:51.933Z,10.90
2023-03-19T09:32:53.936Z,10.90
2023-03-19T09:33:56.979Z,10.90
2023-03-19T09:34:58.992Z,10.90
2023-03-19T09:36:04.633Z,11.00
2023-03-19T09:37:06.693Z,10.90
2023-03-19T09:38:09.849Z,11.00
2023-03-19T09:39:11.760Z,11.00
2023-03-19T09:40:23.648Z,11.10
2023-03-19T09:41:37.718Z,11.10
2023-03-19T09:42:56.964Z,11.10
2023-03-19T09:44:01.859Z,11.20
2023-03-19T09:45:05.356Z,11.20
2023-03-19T09:46:14.909Z,11.20
2023-03-19T09:47:27.262Z,11.30
2023-03-19T09:48:37.254Z,11.40
2023-03-19T09:49:44.090Z,11.40
2023-03-19T09:50:48.885Z,11.40
2023-03-19T09:51:54.796Z,11.40
2023-03-19T09:53:03.017Z,11.40
2023-03-19T09:54:09.304Z,11.40
2023-03-19T09:55:20.682Z,11.40
2023-03-19T09:56:23.104Z,11.40
2023-03-19T09:57:29.876Z,11.40
2023-03-19T09:58:36.282Z,11.40
2023-03-19T09:59:39.136Z,11.40
2023-03-19T10:00:44.164Z,11.40
2023-03-19T10:01:52.950Z,11.40
2023-03-19T10:03:03.869Z,11.50
2023-03-19T10:04:38.121Z,11.50
2023-03-19T10:05:50.420Z,11.50
2023-03-19T10:06:59.620Z,11.60
2023-03-19T10:08:21.158Z,11.60
2023-03-19T10:09:40.331Z,11.50
2023-03-19T10:10:51.549Z,11.60
2023-03-19T10:12:10.375Z,11.60
2023-03-19T10:13:23.927Z,11.60
2023-03-19T10:14:56.766Z,11.60
2023-03-19T10:16:01.927Z,11.60
2023-03-19T10:17:11.909Z,11.60
2023-03-19T10:18:20.449Z,11.60
2023-03-19T10:19:40.486Z,11.60
2023-03-19T10:20:49.787Z,11.70
2023-03-19T10:21:59.527Z,11.70
2023-03-19T10:23:11.024Z,11.70
2023-03-19T10:24:16.858Z,11.60
2023-03-19T10:25:22.077Z,11.60
2023-03-19T10:26:31.193Z,11.50
2023-03-19T10:27:33.409Z,11.50
2023-03-19T10:28:38.224Z,11.50
2023-03-19T10:29:41.116Z,11.50
2023-03-19T10:30:49.636Z,11.60
2023-03-19T10:31:58.209Z,11.60
2023-03-19T10:33:12.129Z,11.60
2023-03-19T10:34:41.028Z,11.60
2023-03-19T10:35:45.373Z,11.60
2023-03-19T10:36:48.381Z,11.70
2023-03-19T10:37:51.957Z,11.70
2023-03-19T10:38:54.973Z,11.70
2023-03-19T10:39:59.981Z,11.80
2023-03-19T10:41:17.452Z,11.70
2023-03-19T10:42:50.204Z,11.70
2023-03-19T10:43:56.828Z,11.70
2023-03-19T10:45:04.959Z,11.80
2023-03-19T10:46:12.913Z,11.60
2023-03-19T10:47:17.629Z,11.80
2023-03-19T10:48:19.828Z,11.70
2023-03-19T10:49:22.788Z,11.80
2023-03-19T10:50:30.076Z,11.80
2023-03-19T10:51:33.453Z,11.80
2023-03-19T10:52:38.628Z,11.80
2023-03-19T10:53:41.334Z,11.80
2023-03-19T10:54:45.971Z,11.80
2023-03-19T10:55:53.526Z,11.90
2023-03-19T10:56:57.593Z,11.80
2023-03-19T10:58:04.852Z,11.80
2023-03-19T10:59:23.704Z,11.80
2023-03-19T11:00:29.359Z,11.80
2023-03-19T11:01:34.889Z,11.80
2023-03-19T11:02:37.641Z,11.80
2023-03-19T11:03:50.570Z,11.80
2023-03-19T11:05:08.683Z,11.80
2023-03-19T11:06:24.834Z,11.80
2023-03-19T11:07:29.003Z,11.80
2023-03-19T11:08:36.153Z,11.80
2023-03-19T11:09:42.004Z,11.80
2023-03-19T11:10:48.515Z,11.80
2023-03-19T11:11:54.130Z,11.80
2023-03-19T11:12:57.947Z,11.80
2023-03-19T11:14:08.753Z,11.80
2023-03-19T11:15:21.132Z,12.00
2023-03-19T11:16:24.318Z,11.90
2023-03-19T11:17:28.502Z,11.90
2023-03-19T11:18:37.102Z,11.80
2023-03-19T11:19:42.175Z,11.90
2023-03-19T11:20:50.020Z,11.90
2023-03-19T11:22:09.699Z,11.90
2023-03-19T11:23:17.006Z,11.80
2023-03-19T11:24:21.256Z,11.80
2023-03-19T11:25:28.374Z,11.80
2023-03-19T11:26:32.451Z,11.80
2023-03-19T11:27:36.914Z,11.80
2023-03-19T11:28:45.177Z,11.80
2023-03-19T11:29:49.432Z,11.80
2023-03-19T11:31:00.012Z,11.90
2023-03-19T11:32:21.233Z,11.90
2023-03-19T11:33:47.650Z,11.90
2023-03-19T11:34:56.956Z,11.90
2023-03-19T11:36:06.527Z,11.90
2023-03-19T11:37:18.030Z,11.90
2023-03-19T11:38:26.371Z,11.80
2023-03-19T11:39:32.302Z,11.90
2023-03-19T11:40:45.510Z,12.00
2023-03-19T11:42:00.278Z,12.00
2023-03-19T11:43:38.673Z,12.00
2023-03-19T11:44:52.767Z,12.10
2023-03-19T11:46:08.016Z,12.10
2023-03-19T11:47:27.477Z,12.10
2023-03-19T11:48:40.589Z,12.20
2023-03-19T11:50:08.285Z,12.10
2023-03-19T11:51:19.192Z,12.10
2023-03-19T11:52:30.391Z,12.10
2023-03-19T11:53:38.527Z,12.10
2023-03-19T11:54:51.163Z,12.10
2023-03-19T11:56:03.522Z,12.10
2023-03-19T11:57:11.514Z,12.00
2023-03-19T11:58:41.387Z,12.10
2023-03-19T12:00:08.128Z,12.20
2023-03-19T12:01:21.343Z,12.30
2023-03-19T12:02:40.831Z,12.40
2023-03-19T12:04:16.947Z,12.40
2023-03-19T12:05:32.998Z,12.40
2023-03-19T12:06:49.251Z,12.30
2023-03-19T12:08:07.409Z,12.20
2023-03-19T12:09:19.086Z,12.20
2023-03-19T12:10:39.186Z,12.30
2023-03-19T12:11:49.612Z,12.30
2023-03-19T12:13:02.930Z,12.20
2023-03-19T12:14:19.745Z,12.20
2023-03-19T12:15:27.023Z,12.20
2023-03-19T12:16:45.730Z,12.20
2023-03-19T12:18:01.781Z,12.30
2023-03-19T12:19:23.948Z,12.20
2023-03-19T12:20:35.863Z,12.10
2023-03-19T12:21:48.700Z,12.10
2023-03-19T12:23:06.554Z,12.10
2023-03-19T12:24:21.608Z,12.20
2023-03-19T12:25:39.331Z,12.30
2023-03-19T12:26:56.544Z,12.40
2023-03-19T12:28:06.490Z,12.30
2023-03-19T12:29:21.618Z,12.40
2023-03-19T12:30:33.712Z,12.30
2023-03-19T12:31:49.168Z,12.30
2023-03-19T12:33:10.198Z,12.20
2023-03-19T12:34:29.690Z,12.20
2023-03-19T12:35:35.413Z,12.20
2023-03-19T12:36:42.870Z,12.20
2023-03-19T12:37:54.251Z,12.20
2023-03-19T12:39:02.378Z,12.10
2023-03-19T12:40:20.658Z,12.10
2023-03-19T12:41:24.311Z,12.00
2023-03-19T12:42:33.295Z,12.00
2023-03-19T12:43:39.087Z,11.90
2023-03-19T12:44:45.198Z,12.00
2023-03-19T12:45:51.146Z,12.00
2023-03-19T12:47:00.171Z,12.00
2023-03-19T12:48:08.498Z,12.10
2023-03-19T12:49:17.970Z,12.10
2023-03-19T12:50:20.442Z,12.00
2023-03-19T12:51:28.825Z,12.00
2023-03-19T12:52:35.776Z,12.00
2023-03-19T12:53:47.567Z,12.00
2023-03-19T12:54:57.890Z,12.10
2023-03-19T12:56:08.035Z,12.10
2023-03-19T12:57:18.655Z,11.00
2023-03-19T12:58:31.318Z,12.10
2023-03-19T12:59:40.768Z,12.10
2023-03-19T13:00:52.766Z,12.10
2023-03-19T13:02:01.895Z,12.10
2023-03-19T13:03:12.024Z,12.10
2023-03-19T13:04:19.116Z,12.10
2023-03-19T13:05:29.706Z,12.10
2023-03-19T13:06:37.008Z,12.10
2023-03-19T13:07:52.064Z,12.10
2023-03-19T13:09:03.000Z,12.10
2023-03-19T13:10:09.671Z,12.10
2023-03-19T13:11:16.797Z,12.20
2023-03-19T13:12:22.898Z,12.20
2023-03-19T13:13:36.464Z,12.20
2023-03-19T13:14:50.095Z,12.10
2023-03-19T13:15:57.102Z,12.10
2023-03-19T13:17:08.552Z,12.10
2023-03-19T13:18:22.752Z,12.10
2023-03-19T13:19:32.162Z,12.10
2023-03-19T13:20:51.866Z,12.10
2023-03-19T13:21:57.924Z,12.10
2023-03-19T13:23:04.950Z,12.10
2023-03-19T13:24:18.570Z,12.10
2023-03-19T13:25:26.549Z,12.10
2023-03-19T13:26:28.839Z,12.00
2023-03-19T13:27:33.901Z,12.00
2023-03-19T13:28:38.720Z,12.00
2023-03-19T13:30:04.028Z,12.00
2023-03-19T13:31:09.559Z,12.00
2023-03-19T13:32:26.502Z,12.00
2023-03-19T13:33:28.941Z,12.00
2023-03-19T13:34:35.320Z,12.00
2023-03-19T13:35:43.708Z,12.00
2023-03-19T13:36:49.180Z,12.00
2023-03-19T13:37:58.452Z,12.00
2023-03-19T13:39:02.692Z,12.00
2023-03-19T13:40:05.924Z,12.00
2023-03-19T13:41:51.984Z,11.90
2023-03-19T13:42:57.218Z,11.90
2023-03-19T13:44:00.877Z,11.90
2023-03-19T13:45:04.920Z,11.90
2023-03-19T13:46:39.278Z,11.90
2023-03-19T13:47:44.083Z,11.90
2023-03-19T13:48:52.016Z,11.90
2023-03-19T13:50:26.362Z,11.90
2023-03-19T13:51:31.201Z,11.90
2023-03-19T13:52:51.897Z,12.00
2023-03-19T13:53:55.138Z,12.00
2023-03-19T13:55:29.900Z,12.00
2023-03-19T13:56:54.398Z,12.10
2023-03-19T13:58:13.000Z,12.10
2023-03-19T13:59:27.923Z,12.20
2023-03-19T14:01:00.813Z,12.20
2023-03-19T14:02:05.392Z,12.30
2023-03-19T14:03:19.827Z,12.30
2023-03-19T14:04:27.853Z,12.30
2023-03-19T14:05:34.035Z,12.30
2023-03-19T14:06:41.616Z,12.20
2023-03-19T14:07:47.677Z,12.20
2023-03-19T14:08:51.808Z,12.20
2023-03-19T14:10:05.895Z,12.20
2023-03-19T14:11:08.172Z,12.20
2023-03-19T14:12:21.665Z,12.20
2023-03-19T14:13:39.608Z,12.20
2023-03-19T14:14:43.889Z,12.20
2023-03-19T14:15:51.585Z,12.30
2023-03-19T14:16:53.995Z,12.30
2023-03-19T14:18:00.527Z,12.30
2023-03-19T14:19:05.247Z,12.30
2023-03-19T14:20:31.469Z,12.30
2023-03-19T14:21:46.732Z,12.50
2023-03-19T14:23:02.601Z,12.70
2023-03-19T14:26:05.174Z,12.60
2023-03-19T14:27:16.075Z,12.60
2023-03-19T14:28:20.887Z,12.50
2023-03-19T14:29:26.604Z,12.40
2023-03-19T14:30:33.827Z,12.40
2023-03-19T14:31:44.758Z,12.30
2023-03-19T14:32:49.982Z,12.20
2023-03-19T14:33:59.218Z,12.30
2023-03-19T14:35:05.784Z,12.20